ilmateenistus.ee keskkonnaagentuur.ee
EETN Tallinn
FTEO31 EETN 230500
TAF EETN 230530Z 2306/2406 13006KT 8000 SCT012 BKN025 TEMPO 2306/2315
    2000 SN BKN005 OVC013 BECMG 2315/2317 07010KT PROB30 TEMPO 2400/2406
    BKN007=

SPECI EETN 230828Z 08006KT 7000 -SN FEW012 BKN020 M10/M11 Q1027 R08/490294 =
Tallinn
EEKA Kärdla
FCEO32 EETN 230400 AAA
TAF AMD EEKA 230800Z 2305/2311 CNL=

SPECI EEKA 230830Z 10009KT 6000 -SN BKN037 M07/M07 Q1024=
Kärdla
EEKE Kuressaare
FCEO32 EETN 230600 CCA
TAF COR EEKE 230603Z 2307/2313 19015KT 4000 SN DRSN BKN008 SCT012CB
    TEMPO 2307/2313 0600 +SHSN BLSN VV006=

METAR EEKE 230750Z 22007KT 190V250 4000 SN FEW030 SCT035 OVC042 M05/M06 Q1023 R17/490195=
Kuressaare
EEPU Pärnu
METAR EEPU 230750Z 14005KT 100V180 0700 +SN OVC006 M09/M10 Q1025=
Pärnu
EETU Tartu
METAR EETU 230820Z AUTO 00000KT 9999 FEW010/// SCT029/// BKN047/// M14/M17 Q1027=
Tartu
EEEI Ämari
METAR EEEI 230750Z 07007KT 2500 SN SCT021 BKN033 OVC049 M10/M12 Q1026 R06/590195 NOSIG=
Ämari